createdAt,value
2019-02-03T00:01:51.182Z,37.23
2019-02-03T00:04:19.737Z,35.73
2019-02-03T00:06:48.252Z,35.10
2019-02-03T00:09:17.105Z,33.97
2019-02-03T00:11:45.687Z,33.77
2019-02-03T00:14:14.288Z,31.37
2019-02-03T00:16:42.809Z,32.03
2019-02-03T00:19:11.758Z,31.57
2019-02-03T00:21:40.189Z,29.93
2019-02-03T00:24:08.724Z,29.90
2019-02-03T00:26:37.345Z,29.43
2019-02-03T00:29:06.252Z,29.40
2019-02-03T00:31:34.768Z,30.27
2019-02-03T00:34:03.891Z,28.20
2019-02-03T00:36:32.346Z,29.20
2019-02-03T00:39:00.940Z,28.90
2019-02-03T00:41:29.423Z,30.57
2019-02-03T00:43:57.941Z,28.80
2019-02-03T00:46:26.489Z,29.30
2019-02-03T00:48:55.081Z,31.17
2019-02-03T00:51:23.558Z,31.60
2019-02-03T00:53:52.082Z,27.90
2019-02-03T00:56:20.681Z,27.30
2019-02-03T00:58:49.200Z,29.67
2019-02-03T01:01:17.662Z,30.20
2019-02-03T01:03:46.180Z,28.13
2019-02-03T01:06:14.684Z,31.23
2019-02-03T01:08:43.961Z,30.53
2019-02-03T01:11:12.507Z,29.80
2019-02-03T01:13:41.012Z,31.47
2019-02-03T01:16:09.957Z,31.47
2019-02-03T01:18:38.403Z,33.83
2019-02-03T01:21:06.927Z,37.13
2019-02-03T01:23:35.432Z,36.37
2019-02-03T01:26:03.966Z,33.60
2019-02-03T01:28:32.529Z,37.03
2019-02-03T01:31:01.781Z,38.47
2019-02-03T01:33:30.293Z,37.83
2019-02-03T01:35:58.769Z,38.70
2019-02-03T01:38:27.344Z,36.60
2019-02-03T01:40:55.876Z,36.60
2019-02-03T01:43:24.403Z,34.83
2019-02-03T01:45:53.137Z,38.50
2019-02-03T01:48:21.648Z,33.63
2019-02-03T01:50:50.190Z,36.33
2019-02-03T01:53:18.717Z,35.97
2019-02-03T01:55:47.261Z,33.10
2019-02-03T01:58:15.798Z,36.40
2019-02-03T02:00:44.317Z,37.20
2019-02-03T02:03:12.792Z,36.83
2019-02-03T02:05:41.344Z,38.80
2019-02-03T02:08:09.930Z,36.73
2019-02-03T02:10:38.449Z,35.73
2019-02-03T02:13:07.063Z,37.23
2019-02-03T02:15:35.653Z,36.57
2019-02-03T02:18:06.109Z,34.63
2019-02-03T02:20:35.301Z,38.37
2019-02-03T02:23:03.936Z,38.03
2019-02-03T02:25:32.496Z,39.27
2019-02-03T02:28:01.049Z,38.80
2019-02-03T02:30:29.568Z,38.67
2019-02-03T02:32:58.161Z,38.07
2019-02-03T02:35:26.832Z,37.07
2019-02-03T02:38:05.809Z,38.27
2019-02-03T02:40:26.142Z,39.37
2019-02-03T02:42:56.020Z,40.27
2019-02-03T02:45:24.732Z,38.30
2019-02-03T02:47:53.261Z,40.40
2019-02-03T02:50:24.927Z,40.03
2019-02-03T02:52:54.632Z,41.23
2019-02-03T02:55:23.512Z,39.60
2019-02-03T02:57:52.076Z,41.80
2019-02-03T03:00:23.151Z,41.30
2019-02-03T03:02:52.120Z,45.13
2019-02-03T03:05:20.885Z,43.20
2019-02-03T03:07:49.584Z,41.77
2019-02-03T03:10:20.248Z,43.73
2019-02-03T03:12:48.894Z,41.03
2019-02-03T03:15:19.277Z,43.10
2019-02-03T03:17:48.000Z,42.13
2019-02-03T03:20:19.045Z,41.87
2019-02-03T03:22:47.726Z,43.60
2019-02-03T03:25:18.983Z,40.23
2019-02-03T03:27:47.773Z,40.73
2019-02-03T03:30:21.662Z,43.27
2019-02-03T03:32:50.286Z,41.47
2019-02-03T03:35:18.897Z,42.33
2019-02-03T03:37:47.830Z,41.60
2019-02-03T03:40:19.051Z,43.07
2019-02-03T03:42:47.499Z,44.87
2019-02-03T03:45:16.294Z,42.90
2019-02-03T03:47:45.050Z,44.73
2019-02-03T03:50:15.316Z,43.93
2019-02-03T03:52:43.861Z,44.33
2019-02-03T03:55:12.556Z,46.13
2019-02-03T03:57:41.172Z,42.17
2019-02-03T04:00:15.941Z,43.90
2019-02-03T04:02:44.516Z,41.17
2019-02-03T04:05:13.772Z,47.23
2019-02-03T04:07:42.263Z,44.63
2019-02-03T04:10:13.486Z,44.40
2019-02-03T04:12:42.102Z,44.10
2019-02-03T04:15:15.699Z,44.73
2019-02-03T04:17:44.568Z,41.87
2019-02-03T04:20:16.107Z,41.73
2019-02-03T04:22:44.644Z,40.20
2019-02-03T04:25:13.331Z,42.03
2019-02-03T04:27:41.955Z,44.90
2019-02-03T04:30:13.713Z,42.53
2019-02-03T04:32:42.305Z,41.57
2019-02-03T04:35:10.838Z,42.13
2019-02-03T04:37:39.505Z,41.87
2019-02-03T04:40:15.991Z,39.40
2019-02-03T04:42:44.884Z,40.17
2019-02-03T04:45:15.689Z,42.67
2019-02-03T04:47:44.355Z,41.97
2019-02-03T04:50:15.903Z,41.27
2019-02-03T04:52:44.435Z,42.23
2019-02-03T04:55:15.519Z,40.10
2019-02-03T04:57:44.038Z,39.37
2019-02-03T05:00:17.974Z,40.50
2019-02-03T05:02:46.661Z,40.00
2019-02-03T05:05:15.376Z,41.57
2019-02-03T05:07:43.898Z,33.03
2019-02-03T05:10:14.386Z,39.00
2019-02-03T05:12:42.929Z,39.37
2019-02-03T05:15:14.285Z,39.53
2019-02-03T05:17:42.842Z,38.63
2019-02-03T05:20:13.730Z,37.67
2019-02-03T05:22:42.568Z,37.10
2019-02-03T05:25:13.020Z,38.13
2019-02-03T05:27:41.559Z,35.87
2019-02-03T05:30:33.478Z,37.80
2019-02-03T05:33:02.332Z,38.53
2019-02-03T05:35:30.852Z,35.80
2019-02-03T05:37:59.397Z,37.43
2019-02-03T05:40:27.920Z,38.37
2019-02-03T05:42:56.531Z,37.40
2019-02-03T05:45:25.182Z,38.13
2019-02-03T05:47:53.966Z,38.73
2019-02-03T05:50:22.972Z,35.97
2019-02-03T05:52:51.600Z,38.30
2019-02-03T05:55:20.569Z,35.60
2019-02-03T05:57:49.154Z,38.27
2019-02-03T06:00:21.898Z,38.33
2019-02-03T06:02:50.348Z,37.77
2019-02-03T06:05:18.886Z,37.30
2019-02-03T06:07:47.448Z,36.87
2019-02-03T06:10:18.029Z,38.57
2019-02-03T06:12:46.627Z,38.93
2019-02-03T06:15:15.909Z,39.97
2019-02-03T06:17:44.355Z,40.03
2019-02-03T06:20:17.795Z,38.27
2019-02-03T06:22:47.070Z,38.40
2019-02-03T06:25:16.164Z,38.37
2019-02-03T06:27:44.941Z,37.90
2019-02-03T06:30:22.748Z,39.10
2019-02-03T06:32:51.581Z,38.20
2019-02-03T06:35:20.103Z,38.23
2019-02-03T06:37:48.732Z,40.97
2019-02-03T06:40:17.393Z,41.10
2019-02-03T06:42:45.955Z,42.20
2019-02-03T06:45:16.183Z,44.33
2019-02-03T06:47:44.671Z,42.47
2019-02-03T06:50:13.120Z,42.70
2019-02-03T06:52:41.560Z,39.70
2019-02-03T06:55:10.446Z,44.37
2019-02-03T06:57:38.893Z,44.73
2019-02-03T07:00:12.741Z,42.63
2019-02-03T07:02:41.197Z,41.00
2019-02-03T07:05:10.010Z,42.07
2019-02-03T07:07:38.546Z,42.33
2019-02-03T07:10:09.615Z,42.70
2019-02-03T07:12:38.060Z,44.00
2019-02-03T07:15:09.091Z,40.33
2019-02-03T07:17:37.604Z,44.73
2019-02-03T07:20:18.066Z,40.97
2019-02-03T07:22:46.654Z,41.03
2019-02-03T07:25:15.261Z,41.30
2019-02-03T07:27:43.770Z,42.63
2019-02-03T07:30:20.504Z,40.27
2019-02-03T07:32:49.091Z,41.87
2019-02-03T07:35:17.621Z,39.47
2019-02-03T07:37:46.305Z,42.27
2019-02-03T07:40:20.031Z,39.00
2019-02-03T07:42:48.500Z,41.33
2019-02-03T07:45:17.154Z,38.63
2019-02-03T07:47:45.953Z,38.27
2019-02-03T07:50:16.069Z,41.30
2019-02-03T07:52:44.851Z,41.17
2019-02-03T07:55:14.643Z,39.47
2019-02-03T07:57:43.147Z,37.83
2019-02-03T08:00:19.545Z,39.40
2019-02-03T08:02:48.325Z,36.33
2019-02-03T08:05:16.916Z,33.80
2019-02-03T08:07:45.531Z,33.40
2019-02-03T08:10:24.496Z,32.67
2019-02-03T08:12:46.519Z,32.10
2019-02-03T08:15:16.695Z,31.33
2019-02-03T08:17:45.271Z,32.37
2019-02-03T08:20:19.043Z,33.27
2019-02-03T08:22:47.921Z,28.50
2019-02-03T08:25:17.594Z,28.67
2019-02-03T08:27:46.494Z,29.67
2019-02-03T08:30:29.160Z,28.67
2019-02-03T08:32:58.444Z,31.03
2019-02-03T08:35:27.051Z,29.17
2019-02-03T08:37:55.581Z,28.30
2019-02-03T08:40:36.563Z,27.67
2019-02-03T08:42:56.181Z,27.00
2019-02-03T08:45:25.673Z,27.13
2019-02-03T08:47:54.319Z,25.50
2019-02-03T08:50:25.832Z,24.00
2019-02-03T08:52:54.737Z,23.20
2019-02-03T08:55:23.250Z,23.07
2019-02-03T08:57:51.790Z,22.43
2019-02-03T09:00:28.781Z,23.60
2019-02-03T09:02:57.383Z,20.43
2019-02-03T09:05:25.932Z,21.57
2019-02-03T09:07:54.468Z,19.37
2019-02-03T09:10:24.917Z,19.90
2019-02-03T09:12:53.445Z,21.30
2019-02-03T09:15:24.473Z,18.53
2019-02-03T09:17:53.173Z,20.17
2019-02-03T09:20:33.413Z,18.87
2019-02-03T09:23:02.112Z,19.87
2019-02-03T09:25:30.804Z,19.80
2019-02-03T09:27:59.383Z,18.40
2019-02-03T09:30:35.611Z,18.80
2019-02-03T09:33:05.200Z,18.63
2019-02-03T09:35:33.667Z,19.07
2019-02-03T09:38:02.209Z,20.60
2019-02-03T09:40:32.820Z,19.73
2019-02-03T09:43:01.340Z,18.80
2019-02-03T09:45:30.256Z,16.23
2019-02-03T09:47:58.837Z,18.50
2019-02-03T09:50:31.473Z,18.37
2019-02-03T09:53:01.731Z,16.73
2019-02-03T09:55:30.954Z,18.60
2019-02-03T09:58:00.624Z,15.83
2019-02-03T10:00:38.922Z,16.30
2019-02-03T10:03:09.714Z,16.27
2019-02-03T10:05:38.397Z,15.83
2019-02-03T10:08:07.099Z,15.67
2019-02-03T10:10:38.404Z,15.20
2019-02-03T10:13:07.581Z,16.00
2019-02-03T10:15:36.087Z,13.23
2019-02-03T10:18:06.797Z,12.23
2019-02-03T10:20:35.380Z,11.43
2019-02-03T10:23:04.681Z,11.43
2019-02-03T10:25:33.460Z,12.17
2019-02-03T10:28:02.391Z,11.37
2019-02-03T10:30:31.023Z,11.57
2019-02-03T10:32:59.804Z,11.60
2019-02-03T10:35:32.917Z,10.97
2019-02-03T10:38:01.885Z,10.67
2019-02-03T10:40:32.879Z,10.47
2019-02-03T10:43:01.870Z,10.80
2019-02-03T10:45:30.763Z,9.53
2019-02-03T10:47:59.259Z,9.07
2019-02-03T10:50:30.529Z,10.43
2019-02-03T10:52:59.587Z,9.90
2019-02-03T10:55:28.117Z,9.60
2019-02-03T10:57:56.721Z,9.80
2019-02-03T11:00:27.970Z,8.63
2019-02-03T11:02:56.585Z,10.57
2019-02-03T11:05:28.315Z,9.13
2019-02-03T11:07:57.296Z,8.93
2019-02-03T11:10:27.700Z,9.03
2019-02-03T11:12:56.361Z,8.40
2019-02-03T11:15:25.430Z,8.57
2019-02-03T11:17:54.038Z,8.23
2019-02-03T11:20:27.765Z,8.83
2019-02-03T11:22:56.950Z,7.80
2019-02-03T11:25:26.896Z,8.30
2019-02-03T11:27:55.489Z,7.93
2019-02-03T11:30:26.244Z,8.07
2019-02-03T11:33:04.841Z,7.93
2019-02-03T11:35:26.204Z,6.87
2019-02-03T11:37:55.131Z,7.47
2019-02-03T11:40:28.624Z,7.20
2019-02-03T11:42:57.613Z,6.80
2019-02-03T11:45:29.201Z,6.97
2019-02-03T11:47:57.900Z,6.00
2019-02-03T11:50:35.116Z,6.23
2019-02-03T11:53:05.294Z,6.90
2019-02-03T11:55:33.868Z,5.60
2019-02-03T11:58:02.333Z,6.47
2019-02-03T12:00:32.276Z,6.90
2019-02-03T12:03:01.230Z,5.73
2019-02-03T12:05:29.856Z,5.73
2019-02-03T12:07:58.360Z,5.67
2019-02-03T12:10:29.527Z,5.40
2019-02-03T12:12:58.115Z,5.33
2019-02-03T12:15:27.289Z,4.90
2019-02-03T12:17:56.389Z,4.97
2019-02-03T12:20:25.046Z,4.47
2019-02-03T12:22:53.543Z,5.00
2019-02-03T12:25:24.454Z,4.63
2019-02-03T12:27:53.557Z,4.93
2019-02-03T12:30:25.282Z,5.60
2019-02-03T12:32:53.863Z,4.97
2019-02-03T12:35:22.922Z,4.47
2019-02-03T12:37:51.464Z,5.33
2019-02-03T12:40:28.745Z,4.00
2019-02-03T12:42:57.335Z,4.60
2019-02-03T12:45:26.013Z,4.40
2019-02-03T12:47:54.634Z,4.90
2019-02-03T12:50:23.208Z,4.20
2019-02-03T12:52:52.228Z,4.70
2019-02-03T12:55:29.393Z,3.93
2019-02-03T12:58:03.857Z,4.13
2019-02-03T13:00:35.095Z,3.80
2019-02-03T13:03:04.700Z,3.73
2019-02-03T13:05:33.130Z,4.20
2019-02-03T13:08:02.280Z,4.10
2019-02-03T13:10:35.608Z,4.40
2019-02-03T13:13:04.747Z,3.87
2019-02-03T13:15:36.267Z,3.73
2019-02-03T13:18:05.852Z,3.43
2019-02-03T13:20:36.468Z,4.53
2019-02-03T13:23:05.877Z,3.90
2019-02-03T13:25:34.661Z,3.27
2019-02-03T13:28:03.443Z,3.30
2019-02-03T13:30:37.887Z,3.47
2019-02-03T13:33:07.235Z,3.47
2019-02-03T13:35:35.906Z,3.80
2019-02-03T13:38:05.280Z,4.03
2019-02-03T13:40:33.728Z,4.23
2019-02-03T13:43:02.177Z,4.47
2019-02-03T13:45:31.382Z,3.30
2019-02-03T13:48:00.590Z,3.13
2019-02-03T13:50:29.586Z,3.40
2019-02-03T13:52:58.329Z,3.17
2019-02-03T13:55:27.479Z,6.50
2019-02-03T13:57:56.331Z,5.03
2019-02-03T14:00:27.820Z,3.57
2019-02-03T14:02:56.402Z,3.20
2019-02-03T14:05:24.877Z,3.47
2019-02-03T14:07:53.413Z,2.60
2019-02-03T14:10:25.224Z,2.90
2019-02-03T14:12:55.144Z,2.57
2019-02-03T14:15:24.300Z,2.53
2019-02-03T14:17:53.011Z,2.43
2019-02-03T14:20:23.816Z,1.93
2019-02-03T14:22:52.545Z,2.77
2019-02-03T14:25:22.627Z,2.50
2019-02-03T14:27:51.513Z,2.80
2019-02-03T14:30:40.053Z,2.80
2019-02-03T14:32:59.130Z,2.67
2019-02-03T14:35:27.835Z,2.43
2019-02-03T14:37:56.699Z,3.10
2019-02-03T14:40:25.744Z,2.23
2019-02-03T14:43:01.942Z,2.53
2019-02-03T14:45:28.408Z,2.40
2019-02-03T14:47:56.931Z,2.90
2019-02-03T14:50:26.685Z,2.63
2019-02-03T14:53:05.033Z,2.40
2019-02-03T14:55:39.188Z,2.50
2019-02-03T14:58:14.983Z,2.90
2019-02-03T15:00:50.489Z,2.67
2019-02-03T15:03:20.204Z,2.73
2019-02-03T15:05:48.872Z,2.80
2019-02-03T15:08:17.443Z,2.70
2019-02-03T15:10:45.971Z,3.03
2019-02-03T15:13:15.974Z,3.53
2019-02-03T15:15:44.800Z,3.00
2019-02-03T15:18:13.363Z,3.40
2019-02-03T15:20:41.977Z,3.40
2019-02-03T15:23:11.572Z,3.37
2019-02-03T15:25:40.105Z,3.17
2019-02-03T15:28:10.770Z,3.17
2019-02-03T15:30:41.748Z,3.00
2019-02-03T15:33:10.385Z,3.00
2019-02-03T15:35:39.060Z,4.10
2019-02-03T15:38:08.047Z,2.70
2019-02-03T15:40:36.670Z,2.70
2019-02-03T15:43:05.589Z,2.57
2019-02-03T15:45:34.117Z,2.77
2019-02-03T15:48:02.700Z,3.80
2019-02-03T15:50:31.672Z,3.40
2019-02-03T15:53:00.276Z,3.10
2019-02-03T15:55:33.912Z,3.70
2019-02-03T15:58:02.859Z,3.43
2019-02-03T16:00:34.084Z,3.20
2019-02-03T16:03:02.686Z,3.40
2019-02-03T16:05:31.246Z,3.03
2019-02-03T16:07:59.862Z,2.80
2019-02-03T16:10:28.817Z,3.27
2019-02-03T16:12:58.513Z,3.40
2019-02-03T16:15:28.100Z,3.07
2019-02-03T16:17:56.707Z,3.60
2019-02-03T16:20:30.118Z,3.63
2019-02-03T16:23:00.351Z,4.47
2019-02-03T16:25:28.978Z,4.03
2019-02-03T16:27:57.561Z,4.20
2019-02-03T16:30:34.959Z,4.07
2019-02-03T16:33:04.507Z,4.20
2019-02-03T16:35:33.079Z,4.57
2019-02-03T16:38:02.057Z,3.90
2019-02-03T16:40:32.337Z,4.17
2019-02-03T16:43:01.304Z,3.87
2019-02-03T16:45:29.943Z,3.70
2019-02-03T16:47:58.483Z,3.93
2019-02-03T16:50:29.425Z,4.33
2019-02-03T16:52:58.977Z,3.70
2019-02-03T16:55:27.432Z,3.57
2019-02-03T16:57:56.109Z,4.27
2019-02-03T17:00:30.917Z,4.53
2019-02-03T17:02:59.634Z,3.70
2019-02-03T17:05:30.373Z,4.27
2019-02-03T17:08:00.625Z,3.97
2019-02-03T17:10:29.301Z,3.73
2019-02-03T17:12:57.976Z,3.37
2019-02-03T17:15:29.233Z,3.80
2019-02-03T17:17:58.506Z,4.00
2019-02-03T17:20:27.091Z,4.30
2019-02-03T17:22:56.056Z,4.33
2019-02-03T17:25:39.711Z,4.73
2019-02-03T17:28:08.419Z,4.37
2019-02-03T17:30:36.933Z,4.20
2019-02-03T17:33:05.935Z,4.13
2019-02-03T17:35:34.609Z,4.30
2019-02-03T17:38:03.204Z,4.63
2019-02-03T17:40:31.645Z,4.83
2019-02-03T17:43:00.121Z,6.23
2019-02-03T17:45:28.716Z,8.67
2019-02-03T17:47:57.250Z,8.70
2019-02-03T17:50:28.825Z,6.43
2019-02-03T17:52:57.359Z,6.10
2019-02-03T17:55:26.041Z,7.00
2019-02-03T17:57:54.626Z,5.77
2019-02-03T18:00:29.599Z,6.30
2019-02-03T18:02:58.112Z,4.80
2019-02-03T18:05:26.649Z,5.77
2019-02-03T18:07:55.166Z,5.80
2019-02-03T18:10:23.837Z,5.90
2019-02-03T18:12:52.534Z,5.77
2019-02-03T18:15:21.232Z,5.97
2019-02-03T18:17:49.676Z,6.07
2019-02-03T18:20:23.117Z,5.67
2019-02-03T18:22:51.615Z,5.87
2019-02-03T18:25:20.135Z,5.70
2019-02-03T18:27:48.715Z,5.57
2019-02-03T18:30:22.688Z,6.70
2019-02-03T18:32:51.580Z,6.30
2019-02-03T18:35:23.381Z,6.27
2019-02-03T18:37:52.257Z,7.00
2019-02-03T18:40:22.054Z,7.40
2019-02-03T18:42:50.646Z,6.80
2019-02-03T18:45:21.796Z,6.53
2019-02-03T18:47:50.351Z,7.33
2019-02-03T18:50:23.501Z,7.17
2019-02-03T18:52:52.677Z,7.40
2019-02-03T18:55:24.266Z,7.30
2019-02-03T18:57:52.809Z,7.77
2019-02-03T19:00:29.906Z,8.20
2019-02-03T19:02:58.611Z,7.93
2019-02-03T19:05:32.125Z,8.60
2019-02-03T19:08:01.012Z,8.87
2019-02-03T19:10:29.525Z,8.43
2019-02-03T19:12:58.060Z,8.47
2019-02-03T19:15:28.940Z,8.50
2019-02-03T19:17:57.781Z,8.93
2019-02-03T19:20:38.035Z,8.77
2019-02-03T19:23:07.816Z,10.17
2019-02-03T19:25:36.491Z,12.03
2019-02-03T19:28:05.798Z,10.73
2019-02-03T19:30:34.598Z,13.10
2019-02-03T19:33:03.154Z,12.55
2019-02-03T19:35:32.987Z,13.10
2019-02-03T19:38:01.618Z,12.80
2019-02-03T19:40:34.061Z,13.80
2019-02-03T19:43:02.654Z,12.53
2019-02-03T19:45:32.333Z,11.50
2019-02-03T19:48:01.220Z,12.27
2019-02-03T19:50:31.829Z,12.33
2019-02-03T19:53:00.520Z,12.23
2019-02-03T19:55:29.197Z,12.07
2019-02-03T19:57:58.180Z,12.03
2019-02-03T20:00:32.691Z,11.23
2019-02-03T20:03:01.310Z,11.00
2019-02-03T20:05:30.116Z,12.03
2019-02-03T20:07:59.470Z,10.63
2019-02-03T20:10:31.675Z,10.60
2019-02-03T20:13:01.822Z,10.00
2019-02-03T20:15:30.630Z,10.53
2019-02-03T20:17:59.211Z,9.67
2019-02-03T20:20:30.601Z,10.50
2019-02-03T20:22:59.126Z,11.10
2019-02-03T20:25:28.430Z,10.87
2019-02-03T20:27:57.051Z,11.33
2019-02-03T20:30:38.224Z,11.47
2019-02-03T20:32:58.492Z,11.93
2019-02-03T20:35:30.397Z,11.37
2019-02-03T20:37:59.279Z,11.43
2019-02-03T20:40:33.240Z,11.70
2019-02-03T20:43:01.878Z,12.10
2019-02-03T20:45:31.365Z,10.93
2019-02-03T20:47:59.945Z,11.73
2019-02-03T20:50:28.588Z,12.20
2019-02-03T20:52:57.685Z,12.33
2019-02-03T20:55:26.523Z,12.03
2019-02-03T20:57:55.146Z,10.87
2019-02-03T21:00:31.925Z,12.47
2019-02-03T21:03:00.609Z,12.33
2019-02-03T21:05:29.246Z,13.17
2019-02-03T21:07:57.863Z,13.83
2019-02-03T21:10:27.249Z,14.73
2019-02-03T21:12:56.804Z,13.73
2019-02-03T21:15:33.721Z,13.77
2019-02-03T21:17:57.548Z,14.07
2019-02-03T21:20:31.648Z,15.63
2019-02-03T21:23:00.356Z,14.03
2019-02-03T21:25:29.051Z,15.13
2019-02-03T21:27:57.583Z,14.90
2019-02-03T21:30:34.833Z,14.10
2019-02-03T21:33:03.823Z,15.30
2019-02-03T21:35:32.514Z,14.50
2019-02-03T21:38:01.120Z,14.10
2019-02-03T21:40:31.417Z,13.80
2019-02-03T21:43:00.079Z,12.60
2019-02-03T21:45:28.662Z,12.33
2019-02-03T21:47:57.196Z,12.00
2019-02-03T21:50:27.868Z,11.83
2019-02-03T21:52:56.511Z,11.07
2019-02-03T21:55:25.037Z,13.33
2019-02-03T21:57:53.624Z,11.83
2019-02-03T22:00:27.797Z,13.47
2019-02-03T22:02:56.385Z,12.97
2019-02-03T22:05:25.107Z,12.57
2019-02-03T22:07:53.562Z,12.40
2019-02-03T22:10:27.534Z,12.30
2019-02-03T22:12:56.360Z,12.10
2019-02-03T22:15:24.969Z,12.57
2019-02-03T22:17:53.585Z,13.07
2019-02-03T22:20:24.365Z,12.90
2019-02-03T22:22:53.124Z,13.77
2019-02-03T22:25:21.584Z,13.37
2019-02-03T22:27:50.469Z,13.13
2019-02-03T22:30:27.845Z,13.07
2019-02-03T22:32:56.534Z,13.47
2019-02-03T22:35:25.148Z,13.33
2019-02-03T22:37:53.923Z,13.83
2019-02-03T22:40:23.009Z,12.33
2019-02-03T22:42:51.541Z,12.70
2019-02-03T22:45:22.504Z,12.63
2019-02-03T22:47:51.039Z,12.37
2019-02-03T22:50:25.025Z,12.33
2019-02-03T22:52:53.757Z,12.20
2019-02-03T22:55:22.340Z,12.97
2019-02-03T22:57:51.090Z,12.70
2019-02-03T23:00:26.908Z,12.13
2019-02-03T23:02:55.368Z,12.80
2019-02-03T23:05:23.818Z,14.30
2019-02-03T23:07:52.476Z,12.97
2019-02-03T23:10:21.321Z,12.70
2019-02-03T23:12:49.904Z,12.97
2019-02-03T23:15:18.486Z,12.73
2019-02-03T23:17:47.031Z,13.07
2019-02-03T23:20:15.561Z,13.30
2019-02-03T23:22:44.251Z,14.13
2019-02-03T23:25:13.160Z,13.70
2019-02-03T23:27:41.628Z,13.93
2019-02-03T23:30:13.303Z,14.93
2019-02-03T23:32:41.840Z,14.20
2019-02-03T23:35:10.628Z,15.87
2019-02-03T23:37:39.139Z,15.23
2019-02-03T23:40:13.072Z,15.03
2019-02-03T23:42:41.528Z,14.87
2019-02-03T23:45:17.304Z,15.72
2019-02-03T23:47:45.918Z,16.20
2019-02-03T23:50:21.975Z,17.07
2019-02-03T23:52:50.424Z,16.70
2019-02-03T23:55:19.064Z,15.53
2019-02-03T23:57:47.544Z,23.32
